Airfield :
LOGIN :

Register | Disclaimer

   EN    FR    IT 

 










Legend :    VFR   Marginal VFR   IFR   Intensive IFR   Very Intensive IFR
Visi :
Ceiling :
>= 8 km
>= 3000ft
5 to 8 km
1000 to 3000 ft
1500m to 5 km
500 to 1000 ft
800 to 1500m
200 to 500 ft
< 800m
< 200 ft
Symbols :   Thunderstorms  Fog  Heavy snow  Heavy precipitations  Wind > 20 kt
SIGMETs :     Misc.  Thunderstorms  Icing  Turbulence  Mountain Waves  Volcanic Ashes







- Airport Elevation : 200 ft


EBBL - Klein Brogel AB

CURRENT METAR :
  • 190055Z AUTO 21004KT 9999 SCT058/// BKN120/// 17/15 Q1013 BLU

EXPIRED METARs :
  • 190025Z AUTO 22003KT 9999 BKN057/// BKN120/// 18/15 Q1013 BLU
  • 182355Z AUTO 22003KT 9999 FEW061/// BKN130/// 17/15 Q1013 BLU
  • 182325Z AUTO VRB02KT 9999 BKN130/// 17/14 Q1013 BLU
  • 182255Z AUTO 21003KT 9999 BKN170/// 18/14 Q1013 BLU
  • 182225Z AUTO VRB02KT 9999 SCT140/// BKN170/// 18/14 Q1013 BLU

TAF TAF EBBL
Valid from the 18 at 19:00 until the 19 at 07:00 UTC


181541Z 1819/1907 24005KT 9999 FEW025 BKN035
TEMPO 1819/1820 5000 -SHRA SCT020 BKN030TCU
PROB30
TEMPO 1819/1820 24010G20KT 5000 -TSRA SCT015 BKN030CB
No reported NOTAMs for that airfield.



MET'MAP, your aeronautical weather chart ! - Copyright ORBIFLY December 2007 - Disclaimer

ORBIFLY MET'MAP TEAM :

Programming & Development : Alexandra Zaïnal
Concept & Development : Baudouin d'Aumeries
Co-Development & Prog : Marc-Olivier Méhu
Technical & hardware support : Manuel Goepfert

Contact : metmap@orbifly.com




SOURCES & CREDITS :

   NOAA